Axtell, UT

9:30 PM MDT on October 01, 2014 (GMT -0600)
RAWS FILLMORE PORT #2 UT US | Change Station
CLOSE
Current Station
Personal Weather Station
Location: Scipio, UT
Elevation: 6157 ft
Nearby Weather Stations
Active Advisory: Freeze Warning

Elev 6157 ft 39.13 °N, 112.04 °W | Updated 33 minutes ago

Clear
Clear
43 °F
Feels Like 43 °F
N
1
Wind Variable Wind from NNE
Gusts 11.0 mph

Today
High -- | Low -- °F
--% Chance of Precip.
Yesterday
High -- | Low -- °F
Precip. -- in
7:23 AM 7:09 PM
First Quarter, 54% visible
Pressure 30.13 in
Visibility 10.0 miles
Clouds Clear
Windchill 43 °F
Dew Point 31 °F
Humidity 62%
Rainfall 0.52 in
Snow Depth 1 in , 1 in , 0 in
UV 0 out of 12
Pollen 4.00 out of 12
Air Quality Not available.
Flu Activity Not available.
METAR KPUC 020253Z AUTO 35012KT 10SM CLR 08/M03 A3016 RMK AO2 PK WND 32026/0157 SLP201 T00831028 53026

More Conditions Fewer Conditions

Pressure 30.13 in
Visibility 10.0 miles
Clouds Clear
Windchill 43 °F
Dew Point 31 °F
Humidity 62%
Rainfall 0.52 in
Snow Depth 1 in , 1 in , 0 in
UV 0 out of 12
Pollen 4.00 out of 12
Air Quality Not available.
Flu Activity Not available.
METAR KPUC 020253Z AUTO 35012KT 10SM CLR 08/M03 A3016 RMK AO2 PK WND 32026/0157 SLP201 T00831028 53026

More Conditions Fewer Conditions

10-Day Weather Forecast

Almanac

Astronomy

Oct. 01, 2014 Rise Set
Actual Time 7:23 AM MDT 7:09 PM MDT
Civil Twilight 6:56 AM MDT 7:36 PM MDT
Nautical Twilight 6:25 AM MDT 8:07 PM MDT
Astronomical Twilight 5:54 AM MDT 8:38 PM MDT
Moon 2:25 PM MDT (10/1) No Moon Set
Length of Visible Light 12h 39m
Length of Day
11h 46m
Tomorrow will be 2m 32s shorter.
First Quarter, 54% of the Moon is Illuminated
Today
First Quarter
Oct 8
Full
Oct 15
Last Quarter
Oct 23
New
Oct 30
First Quarter

Today's Extremes

State Highs State Lows

Community

WunderPhotos

Upload Photos

1,758,162 photos uploaded!

Nearby

Snow Depth

Station Depth Elevation
Brown Duck 1 in 10600 ft
Brighton 1 in 8750 ft
Buck Flat 0 in 9800 ft
Cascade Mountain 1 in 7768 ft
Pickle Keg 0 in 9600 ft

Earthquake Activity

City Distance Mag. Time & Date
No recent earthquake activity has been reported nearby.
Minimum magnitude displayed is 2.5.

Coastal Water Temperatures

Place Temperature
No Stations Reporting

Nearby Weather Stations